Wheeler Sack Army Air Field
KGTB : now visible

Airfield :











YOU CAN JOIN US ON...

 
LOGIN :

Register | Disclaimer

   EN    FR    IT 

 









Legend :    VFR   Marginal VFR   IFR   Intensive IFR   Very Intensive IFR
Visi :
Ceiling :
>= 8 km
>= 3000ft
5 to 8 km
1000 to 3000 ft
1500m to 5 km
500 to 1000 ft
800 to 1500m
200 to 500 ft
< 800m
< 200 ft
Symbols :   Thunderstorms  Fog  Heavy snow  Heavy precipitations  Wind > 20 kt






- Airport Elevation : 688 ft


KGTB - Wheeler Sack Army Air Field

CURRENT METAR :
  • 201946Z AUTO 01006KT 10SM OVC007 07/06 A3030 RMK AO2 CIG 006 RWY03 SLP265

EXPIRED METARs :
  • 201916Z AUTO 01005KT 10SM OVC006 07/06 A3029 RMK AO2 SLP261
  • 201856Z AUTO 35004KT 10SM OVC005 07/06 A3029 RMK AO2 SLP261 T00730061
  • 201756Z AUTO 36005KT 10SM OVC005 07/06 A3027 RMK AO2 SLP254 60002 T00740062 10074 20052 50008
  • 201736Z AUTO 33003KT 10SM OVC005 07/06 A3027 RMK AO2 SLP254
  • 201656Z AUTO 00000KT 10SM OVC004 07/06 A3026 RMK AO2 CIG 003 RWY03 SLP251 T00680061

TAF AMD TAF KGTB
Valid from the 20 at 19:00 until the 21 at 23:00 UTC


201920Z 2019/2123 VRB06KT 9999 OVC006 QNH3025INS
TEMPO 2019/2022 OVC005
BECMG 2105/2106 VRB06KT 4800 BR BKN004 QNH3022INS
BECMG 2111/2112 17015G25KT 8000 BR SCT012 BKN030 OVC040 530105 QNH3007INS
BECMG 2119/2120 18015G25KT 8000 -RA BKN010 OVC015 530054 QNH3001INS TX16/2117Z TN06/2102Z
KZBW FIR / North America



MET'MAP, your aeronautical weather chart ! - Copyright ORBIFLY December 2007 - Disclaimer

ORBIFLY MET'MAP TEAM :

Programming & Development : Alexandra Zaïnal
Concept & original design : Baudouin d'Aumeries
Assistance for programming : Marc-Olivier Méhu
Technical & hardware support : Manuel Goepfert

Contact : metmap@orbifly.com




SOURCES & CREDITS :

   NOAA       Earth
Advisory